sensor_id;sensor_type;location;lat;lon;timestamp;temperature;humidity
11922;DHT22;6021;51.182;3.160;2023-04-24T00:00:56;9.20;99.90
11922;DHT22;6021;51.182;3.160;2023-04-24T00:03:25;9.20;99.90
11922;DHT22;6021;51.182;3.160;2023-04-24T00:05:55;9.20;99.90
11922;DHT22;6021;51.182;3.160;2023-04-24T00:08:24;9.50;99.90
11922;DHT22;6021;51.182;3.160;2023-04-24T00:10:52;9.20;99.90
11922;DHT22;6021;51.182;3.160;2023-04-24T00:13:21;9.40;99.90
11922;DHT22;6021;51.182;3.160;2023-04-24T00:15:49;9.30;99.90
11922;DHT22;6021;51.182;3.160;2023-04-24T00:18:24;9.20;99.90
11922;DHT22;6021;51.182;3.160;2023-04-24T00:20:54;9.40;99.90
11922;DHT22;6021;51.182;3.160;2023-04-24T00:23:22;9.50;99.90
11922;DHT22;6021;51.182;3.160;2023-04-24T00:25:50;9.20;99.90
11922;DHT22;6021;51.182;3.160;2023-04-24T00:28:19;9.30;99.90
11922;DHT22;6021;51.182;3.160;2023-04-24T00:30:48;9.30;99.90
11922;DHT22;6021;51.182;3.160;2023-04-24T00:33:18;9.30;99.90
11922;DHT22;6021;51.182;3.160;2023-04-24T00:35:48;9.30;99.90
11922;DHT22;6021;51.182;3.160;2023-04-24T00:38:18;9.40;99.90
11922;DHT22;6021;51.182;3.160;2023-04-24T00:43:22;9.50;99.90
11922;DHT22;6021;51.182;3.160;2023-04-24T00:45:51;9.40;99.90
11922;DHT22;6021;51.182;3.160;2023-04-24T00:48:24;9.40;99.90
11922;DHT22;6021;51.182;3.160;2023-04-24T00:50:54;9.40;99.90
11922;DHT22;6021;51.182;3.160;2023-04-24T00:53:25;9.40;99.90
11922;DHT22;6021;51.182;3.160;2023-04-24T00:55:57;9.40;99.90
11922;DHT22;6021;51.182;3.160;2023-04-24T00:58:33;9.30;99.90
11922;DHT22;6021;51.182;3.160;2023-04-24T01:01:02;9.50;99.90
11922;DHT22;6021;51.182;3.160;2023-04-24T01:06:33;9.50;99.90
11922;DHT22;6021;51.182;3.160;2023-04-24T01:09:43;9.40;99.90
11922;DHT22;6021;51.182;3.160;2023-04-24T01:12:20;9.40;99.90
11922;DHT22;6021;51.182;3.160;2023-04-24T01:14:49;9.40;99.90
11922;DHT22;6021;51.182;3.160;2023-04-24T01:17:19;9.40;99.90
11922;DHT22;6021;51.182;3.160;2023-04-24T01:20:00;9.40;99.90
11922;DHT22;6021;51.182;3.160;2023-04-24T01:22:26;9.90;99.90
11922;DHT22;6021;51.182;3.160;2023-04-24T01:24:55;9.50;99.90
11922;DHT22;6021;51.182;3.160;2023-04-24T01:27:25;9.40;99.90
11922;DHT22;6021;51.182;3.160;2023-04-24T01:29:53;9.50;99.90
11922;DHT22;6021;51.182;3.160;2023-04-24T01:32:25;9.40;99.90
11922;DHT22;6021;51.182;3.160;2023-04-24T01:34:57;9.40;99.90
11922;DHT22;6021;51.182;3.160;2023-04-24T01:40:03;9.50;99.90
11922;DHT22;6021;51.182;3.160;2023-04-24T01:42:42;9.20;99.90
11922;DHT22;6021;51.182;3.160;2023-04-24T01:45:15;9.20;99.90
11922;DHT22;6021;51.182;3.160;2023-04-24T01:47:44;9.20;99.90
11922;DHT22;6021;51.182;3.160;2023-04-24T01:50:15;9.10;99.90
11922;DHT22;6021;51.182;3.160;2023-04-24T01:52:44;9.10;99.90
11922;DHT22;6021;51.182;3.160;2023-04-24T01:55:12;9.10;99.90
11922;DHT22;6021;51.182;3.160;2023-04-24T01:57:42;9.10;99.90
11922;DHT22;6021;51.182;3.160;2023-04-24T02:00:12;8.80;99.90
11922;DHT22;6021;51.182;3.160;2023-04-24T02:02:40;8.80;99.90
11922;DHT22;6021;51.182;3.160;2023-04-24T02:05:17;8.80;99.90
11922;DHT22;6021;51.182;3.160;2023-04-24T02:07:41;8.70;99.90
11922;DHT22;6021;51.182;3.160;2023-04-24T02:10:12;8.70;99.90
11922;DHT22;6021;51.182;3.160;2023-04-24T02:12:44;8.80;99.90
11922;DHT22;6021;51.182;3.160;2023-04-24T02:15:18;8.80;99.90
11922;DHT22;6021;51.182;3.160;2023-04-24T02:17:47;8.80;99.90
11922;DHT22;6021;51.182;3.160;2023-04-24T02:20:19;8.90;99.90
11922;DHT22;6021;51.182;3.160;2023-04-24T02:22:48;8.60;99.90
11922;DHT22;6021;51.182;3.160;2023-04-24T02:25:18;8.80;99.90
11922;DHT22;6021;51.182;3.160;2023-04-24T02:27:50;8.80;99.90
11922;DHT22;6021;51.182;3.160;2023-04-24T02:30:20;8.60;99.90
11922;DHT22;6021;51.182;3.160;2023-04-24T02:32:52;8.80;99.90
11922;DHT22;6021;51.182;3.160;2023-04-24T02:35:20;8.60;99.90
11922;DHT22;6021;51.182;3.160;2023-04-24T02:37:52;8.60;99.90
11922;DHT22;6021;51.182;3.160;2023-04-24T02:40:26;8.60;99.90
11922;DHT22;6021;51.182;3.160;2023-04-24T02:42:56;8.80;99.90
11922;DHT22;6021;51.182;3.160;2023-04-24T02:45:27;8.60;99.90
11922;DHT22;6021;51.182;3.160;2023-04-24T02:47:58;8.80;99.90
11922;DHT22;6021;51.182;3.160;2023-04-24T02:52:59;8.50;99.90
11922;DHT22;6021;51.182;3.160;2023-04-24T02:55:31;8.40;99.90
11922;DHT22;6021;51.182;3.160;2023-04-24T02:58:00;8.40;99.90
11922;DHT22;6021;51.182;3.160;2023-04-24T03:00:33;8.50;99.90
11922;DHT22;6021;51.182;3.160;2023-04-24T03:03:04;8.40;99.90
11922;DHT22;6021;51.182;3.160;2023-04-24T03:05:40;8.40;99.90
11922;DHT22;6021;51.182;3.160;2023-04-24T03:08:10;8.30;99.90
11922;DHT22;6021;51.182;3.160;2023-04-24T03:10:46;8.50;99.90
11922;DHT22;6021;51.182;3.160;2023-04-24T03:13:23;8.20;99.90
11922;DHT22;6021;51.182;3.160;2023-04-24T03:15:55;8.10;99.90
11922;DHT22;6021;51.182;3.160;2023-04-24T03:18:26;8.10;99.90
11922;DHT22;6021;51.182;3.160;2023-04-24T03:21:06;8.20;99.90
11922;DHT22;6021;51.182;3.160;2023-04-24T03:23:30;8.20;99.90
11922;DHT22;6021;51.182;3.160;2023-04-24T03:25:59;8.50;99.90
11922;DHT22;6021;51.182;3.160;2023-04-24T03:28:48;8.40;99.90
11922;DHT22;6021;51.182;3.160;2023-04-24T03:31:03;8.20;99.90
11922;DHT22;6021;51.182;3.160;2023-04-24T03:33:36;8.40;99.90
11922;DHT22;6021;51.182;3.160;2023-04-24T03:36:08;8.30;99.90
11922;DHT22;6021;51.182;3.160;2023-04-24T03:38:54;8.50;99.90
11922;DHT22;6021;51.182;3.160;2023-04-24T03:41:33;8.30;99.90
11922;DHT22;6021;51.182;3.160;2023-04-24T03:44:04;8.50;99.90
11922;DHT22;6021;51.182;3.160;2023-04-24T03:46:45;8.50;99.90
11922;DHT22;6021;51.182;3.160;2023-04-24T03:49:17;8.50;99.90
11922;DHT22;6021;51.182;3.160;2023-04-24T03:51:48;8.40;99.90
11922;DHT22;6021;51.182;3.160;2023-04-24T03:54:28;8.30;99.90
11922;DHT22;6021;51.182;3.160;2023-04-24T03:57:15;8.20;99.90
11922;DHT22;6021;51.182;3.160;2023-04-24T03:59:45;8.30;99.90
11922;DHT22;6021;51.182;3.160;2023-04-24T04:02:20;8.50;99.90
11922;DHT22;6021;51.182;3.160;2023-04-24T04:04:50;8.40;99.90
11922;DHT22;6021;51.182;3.160;2023-04-24T04:07:31;8.00;99.90
11922;DHT22;6021;51.182;3.160;2023-04-24T04:10:09;8.50;99.90
11922;DHT22;6021;51.182;3.160;2023-04-24T04:12:42;8.20;99.90
11922;DHT22;6021;51.182;3.160;2023-04-24T04:15:16;8.20;99.90
11922;DHT22;6021;51.182;3.160;2023-04-24T04:17:50;8.20;99.90
11922;DHT22;6021;51.182;3.160;2023-04-24T04:20:39;8.20;99.90
11922;DHT22;6021;51.182;3.160;2023-04-24T04:23:10;8.20;99.90
11922;DHT22;6021;51.182;3.160;2023-04-24T04:25:39;8.20;99.90
11922;DHT22;6021;51.182;3.160;2023-04-24T04:28:09;8.20;99.90
11922;DHT22;6021;51.182;3.160;2023-04-24T04:30:44;8.40;99.90
11922;DHT22;6021;51.182;3.160;2023-04-24T04:33:14;8.10;99.90
11922;DHT22;6021;51.182;3.160;2023-04-24T04:35:49;8.20;99.90
11922;DHT22;6021;51.182;3.160;2023-04-24T04:38:27;8.30;99.90
11922;DHT22;6021;51.182;3.160;2023-04-24T04:41:01;8.60;99.90
11922;DHT22;6021;51.182;3.160;2023-04-24T04:43:34;8.30;99.90
11922;DHT22;6021;51.182;3.160;2023-04-24T04:46:11;8.50;99.90
11922;DHT22;6021;51.182;3.160;2023-04-24T04:48:50;8.40;99.90
11922;DHT22;6021;51.182;3.160;2023-04-24T04:51:22;8.40;99.90
11922;DHT22;6021;51.182;3.160;2023-04-24T04:53:57;8.30;99.90
11922;DHT22;6021;51.182;3.160;2023-04-24T04:59:07;8.60;99.90
11922;DHT22;6021;51.182;3.160;2023-04-24T05:01:33;8.50;99.90
11922;DHT22;6021;51.182;3.160;2023-04-24T05:04:06;8.40;99.90
11922;DHT22;6021;51.182;3.160;2023-04-24T05:06:36;8.40;99.90
11922;DHT22;6021;51.182;3.160;2023-04-24T05:09:16;8.40;99.90
11922;DHT22;6021;51.182;3.160;2023-04-24T05:11:59;8.50;99.90
11922;DHT22;6021;51.182;3.160;2023-04-24T05:14:31;8.50;99.90
11922;DHT22;6021;51.182;3.160;2023-04-24T05:17:04;8.50;99.90
11922;DHT22;6021;51.182;3.160;2023-04-24T05:19:42;8.60;99.90
11922;DHT22;6021;51.182;3.160;2023-04-24T05:22:14;8.70;99.90
11922;DHT22;6021;51.182;3.160;2023-04-24T05:24:44;8.90;99.90
11922;DHT22;6021;51.182;3.160;2023-04-24T05:27:20;8.70;99.90
11922;DHT22;6021;51.182;3.160;2023-04-24T05:29:59;8.80;99.90
11922;DHT22;6021;51.182;3.160;2023-04-24T05:32:33;8.70;99.90
11922;DHT22;6021;51.182;3.160;2023-04-24T05:35:06;8.80;99.90
11922;DHT22;6021;51.182;3.160;2023-04-24T05:38:00;8.60;99.90
11922;DHT22;6021;51.182;3.160;2023-04-24T05:40:32;8.80;99.90
11922;DHT22;6021;51.182;3.160;2023-04-24T05:43:04;8.60;99.90
11922;DHT22;6021;51.182;3.160;2023-04-24T05:45:34;8.60;99.90
11922;DHT22;6021;51.182;3.160;2023-04-24T05:48:08;8.60;99.90
11922;DHT22;6021;51.182;3.160;2023-04-24T05:50:44;8.50;99.90
11922;DHT22;6021;51.182;3.160;2023-04-24T05:53:19;8.60;99.90
11922;DHT22;6021;51.182;3.160;2023-04-24T05:55:55;8.50;99.90
11922;DHT22;6021;51.182;3.160;2023-04-24T05:58:41;8.50;99.90
11922;DHT22;6021;51.182;3.160;2023-04-24T06:01:24;8.70;99.90
11922;DHT22;6021;51.182;3.160;2023-04-24T06:03:57;8.70;99.90
11922;DHT22;6021;51.182;3.160;2023-04-24T06:06:26;8.50;99.90
11922;DHT22;6021;51.182;3.160;2023-04-24T06:09:00;8.60;99.90
11922;DHT22;6021;51.182;3.160;2023-04-24T06:11:37;8.70;99.90
11922;DHT22;6021;51.182;3.160;2023-04-24T06:14:15;8.60;99.90
11922;DHT22;6021;51.182;3.160;2023-04-24T06:16:51;8.60;99.90
11922;DHT22;6021;51.182;3.160;2023-04-24T06:19:29;8.70;99.90
11922;DHT22;6021;51.182;3.160;2023-04-24T06:22:07;8.60;99.90
11922;DHT22;6021;51.182;3.160;2023-04-24T06:24:52;8.60;99.90
11922;DHT22;6021;51.182;3.160;2023-04-24T06:27:36;8.80;99.90
11922;DHT22;6021;51.182;3.160;2023-04-24T06:30:12;8.80;99.90
11922;DHT22;6021;51.182;3.160;2023-04-24T06:32:45;8.80;99.90
11922;DHT22;6021;51.182;3.160;2023-04-24T06:35:30;8.90;99.90
11922;DHT22;6021;51.182;3.160;2023-04-24T06:38:14;8.90;99.90
11922;DHT22;6021;51.182;3.160;2023-04-24T06:40:55;8.70;99.90
11922;DHT22;6021;51.182;3.160;2023-04-24T06:43:37;8.70;99.90
11922;DHT22;6021;51.182;3.160;2023-04-24T06:46:20;8.70;99.90
11922;DHT22;6021;51.182;3.160;2023-04-24T06:48:55;8.70;99.90
11922;DHT22;6021;51.182;3.160;2023-04-24T06:51:37;8.90;99.90
11922;DHT22;6021;51.182;3.160;2023-04-24T06:54:23;8.60;99.90
11922;DHT22;6021;51.182;3.160;2023-04-24T06:57:04;8.70;99.90
11922;DHT22;6021;51.182;3.160;2023-04-24T06:59:36;8.70;99.90
11922;DHT22;6021;51.182;3.160;2023-04-24T07:02:14;8.90;99.90
11922;DHT22;6021;51.182;3.160;2023-04-24T07:04:55;9.00;99.90
11922;DHT22;6021;51.182;3.160;2023-04-24T07:07:29;9.00;99.90
11922;DHT22;6021;51.182;3.160;2023-04-24T07:09:57;9.30;99.90
11922;DHT22;6021;51.182;3.160;2023-04-24T07:12:29;9.40;99.90
11922;DHT22;6021;51.182;3.160;2023-04-24T07:15:00;9.50;99.90
11922;DHT22;6021;51.182;3.160;2023-04-24T07:17:34;9.60;99.90
11922;DHT22;6021;51.182;3.160;2023-04-24T07:20:15;9.50;99.90
11922;DHT22;6021;51.182;3.160;2023-04-24T07:22:50;9.30;99.90
11922;DHT22;6021;51.182;3.160;2023-04-24T07:25:22;9.40;99.90
11922;DHT22;6021;51.182;3.160;2023-04-24T07:28:00;9.50;99.90
11922;DHT22;6021;51.182;3.160;2023-04-24T07:30:45;9.40;99.90
11922;DHT22;6021;51.182;3.160;2023-04-24T07:33:25;9.60;99.90
11922;DHT22;6021;51.182;3.160;2023-04-24T07:35:58;9.60;99.90
11922;DHT22;6021;51.182;3.160;2023-04-24T07:38:33;9.60;99.90
11922;DHT22;6021;51.182;3.160;2023-04-24T07:41:14;9.90;99.90
11922;DHT22;6021;51.182;3.160;2023-04-24T07:43:47;10.30;99.90
11922;DHT22;6021;51.182;3.160;2023-04-24T07:46:27;10.10;99.90
11922;DHT22;6021;51.182;3.160;2023-04-24T07:48:55;10.20;99.90
11922;DHT22;6021;51.182;3.160;2023-04-24T07:51:27;10.30;99.90
11922;DHT22;6021;51.182;3.160;2023-04-24T07:54:01;10.70;99.90
11922;DHT22;6021;51.182;3.160;2023-04-24T07:56:34;10.70;99.90
11922;DHT22;6021;51.182;3.160;2023-04-24T07:59:07;10.30;99.90
11922;DHT22;6021;51.182;3.160;2023-04-24T08:01:40;10.30;99.90
11922;DHT22;6021;51.182;3.160;2023-04-24T08:04:08;10.00;99.90
11922;DHT22;6021;51.182;3.160;2023-04-24T08:06:45;9.80;99.90
11922;DHT22;6021;51.182;3.160;2023-04-24T08:09:18;9.80;99.90
11922;DHT22;6021;51.182;3.160;2023-04-24T08:11:46;9.70;99.90
11922;DHT22;6021;51.182;3.160;2023-04-24T08:14:17;9.70;99.90
11922;DHT22;6021;51.182;3.160;2023-04-24T08:16:50;9.50;99.90
11922;DHT22;6021;51.182;3.160;2023-04-24T08:19:30;9.60;99.90
11922;DHT22;6021;51.182;3.160;2023-04-24T08:22:06;9.70;99.90
11922;DHT22;6021;51.182;3.160;2023-04-24T08:24:35;9.50;99.90
11922;DHT22;6021;51.182;3.160;2023-04-24T08:27:05;9.40;99.90
11922;DHT22;6021;51.182;3.160;2023-04-24T08:29:38;9.50;99.90
11922;DHT22;6021;51.182;3.160;2023-04-24T08:32:13;9.40;99.90
11922;DHT22;6021;51.182;3.160;2023-04-24T08:34:42;9.20;99.90
11922;DHT22;6021;51.182;3.160;2023-04-24T08:37:22;9.00;99.90
11922;DHT22;6021;51.182;3.160;2023-04-24T08:40:13;9.10;99.90
11922;DHT22;6021;51.182;3.160;2023-04-24T08:43:08;9.00;99.90
11922;DHT22;6021;51.182;3.160;2023-04-24T08:45:51;9.10;99.90
11922;DHT22;6021;51.182;3.160;2023-04-24T08:48:40;9.20;99.90
11922;DHT22;6021;51.182;3.160;2023-04-24T08:51:08;9.30;99.90
11922;DHT22;6021;51.182;3.160;2023-04-24T08:53:39;9.50;99.90
11922;DHT22;6021;51.182;3.160;2023-04-24T08:56:09;9.50;99.90
11922;DHT22;6021;51.182;3.160;2023-04-24T08:58:45;9.50;99.90
11922;DHT22;6021;51.182;3.160;2023-04-24T09:01:28;9.90;99.90
11922;DHT22;6021;51.182;3.160;2023-04-24T09:04:24;9.70;99.90
11922;DHT22;6021;51.182;3.160;2023-04-24T09:06:56;10.00;99.90
11922;DHT22;6021;51.182;3.160;2023-04-24T09:09:30;10.60;99.90
11922;DHT22;6021;51.182;3.160;2023-04-24T09:12:11;10.30;75.30
11922;DHT22;6021;51.182;3.160;2023-04-24T09:14:43;10.50;49.10
11922;DHT22;6021;51.182;3.160;2023-04-24T09:17:19;10.30;57.50
11922;DHT22;6021;51.182;3.160;2023-04-24T09:19:54;10.30;63.00
11922;DHT22;6021;51.182;3.160;2023-04-24T09:22:37;10.30;21.20
11922;DHT22;6021;51.182;3.160;2023-04-24T09:25:07;10.30;22.60
11922;DHT22;6021;51.182;3.160;2023-04-24T09:27:41;10.30;1.00
11922;DHT22;6021;51.182;3.160;2023-04-24T09:30:20;10.30;1.10
11922;DHT22;6021;51.182;3.160;2023-04-24T09:32:47;10.00;19.60
11922;DHT22;6021;51.182;3.160;2023-04-24T09:35:20;10.00;16.00
11922;DHT22;6021;51.182;3.160;2023-04-24T09:37:49;10.10;6.90
11922;DHT22;6021;51.182;3.160;2023-04-24T09:40:25;10.00;16.10
11922;DHT22;6021;51.182;3.160;2023-04-24T09:42:55;10.10;24.20
11922;DHT22;6021;51.182;3.160;2023-04-24T09:45:38;10.00;57.90
11922;DHT22;6021;51.182;3.160;2023-04-24T09:48:10;9.90;36.60
11922;DHT22;6021;51.182;3.160;2023-04-24T09:50:45;10.00;17.40
11922;DHT22;6021;51.182;3.160;2023-04-24T09:53:17;9.80;26.90
11922;DHT22;6021;51.182;3.160;2023-04-24T09:55:49;9.80;38.60
11922;DHT22;6021;51.182;3.160;2023-04-24T09:58:29;9.80;40.40
11922;DHT22;6021;51.182;3.160;2023-04-24T10:00:58;9.70;20.90
11922;DHT22;6021;51.182;3.160;2023-04-24T10:03:38;9.90;5.10
11922;DHT22;6021;51.182;3.160;2023-04-24T10:06:32;9.70;19.50
11922;DHT22;6021;51.182;3.160;2023-04-24T10:09:07;9.90;11.30
11922;DHT22;6021;51.182;3.160;2023-04-24T10:11:37;10.10;1.00
11922;DHT22;6021;51.182;3.160;2023-04-24T10:14:20;10.30;1.00
11922;DHT22;6021;51.182;3.160;2023-04-24T10:16:53;10.40;1.00
11922;DHT22;6021;51.182;3.160;2023-04-24T10:19:26;10.60;1.00
11922;DHT22;6021;51.182;3.160;2023-04-24T10:21:58;10.70;1.00
11922;DHT22;6021;51.182;3.160;2023-04-24T10:24:41;10.60;1.00
11922;DHT22;6021;51.182;3.160;2023-04-24T10:27:10;10.50;1.00
11922;DHT22;6021;51.182;3.160;2023-04-24T10:29:43;10.60;1.00
11922;DHT22;6021;51.182;3.160;2023-04-24T10:32:16;10.30;1.00
11922;DHT22;6021;51.182;3.160;2023-04-24T10:34:49;10.40;1.00
11922;DHT22;6021;51.182;3.160;2023-04-24T10:37:26;10.30;1.00
11922;DHT22;6021;51.182;3.160;2023-04-24T10:39:58;10.50;1.00
11922;DHT22;6021;51.182;3.160;2023-04-24T10:42:36;10.70;1.00
11922;DHT22;6021;51.182;3.160;2023-04-24T10:45:18;10.70;1.00
11922;DHT22;6021;51.182;3.160;2023-04-24T10:48:01;11.00;1.00
11922;DHT22;6021;51.182;3.160;2023-04-24T10:50:59;11.60;1.00
11922;DHT22;6021;51.182;3.160;2023-04-24T10:53:42;11.30;1.00
11922;DHT22;6021;51.182;3.160;2023-04-24T10:56:06;11.00;1.00
11922;DHT22;6021;51.182;3.160;2023-04-24T10:59:12;11.10;1.00
11922;DHT22;6021;51.182;3.160;2023-04-24T11:01:41;11.00;1.00
11922;DHT22;6021;51.182;3.160;2023-04-24T11:04:22;11.50;1.00
11922;DHT22;6021;51.182;3.160;2023-04-24T11:06:54;11.30;1.00
11922;DHT22;6021;51.182;3.160;2023-04-24T11:12:51;11.20;1.00
11922;DHT22;6021;51.182;3.160;2023-04-24T11:15:21;11.40;1.00
11922;DHT22;6021;51.182;3.160;2023-04-24T11:17:55;11.60;1.00
11922;DHT22;6021;51.182;3.160;2023-04-24T11:20:28;11.30;1.00
11922;DHT22;6021;51.182;3.160;2023-04-24T11:23:05;11.50;1.00
11922;DHT22;6021;51.182;3.160;2023-04-24T11:25:52;11.70;1.00
11922;DHT22;6021;51.182;3.160;2023-04-24T11:28:17;11.90;1.00
11922;DHT22;6021;51.182;3.160;2023-04-24T11:30:49;12.00;1.00
11922;DHT22;6021;51.182;3.160;2023-04-24T11:33:21;12.10;1.00
11922;DHT22;6021;51.182;3.160;2023-04-24T11:35:51;12.10;1.00
11922;DHT22;6021;51.182;3.160;2023-04-24T11:38:20;12.20;1.00
11922;DHT22;6021;51.182;3.160;2023-04-24T11:40:57;12.10;1.00
11922;DHT22;6021;51.182;3.160;2023-04-24T11:43:30;12.00;1.00
11922;DHT22;6021;51.182;3.160;2023-04-24T11:46:03;11.60;1.00
11922;DHT22;6021;51.182;3.160;2023-04-24T11:48:34;11.90;1.00
11922;DHT22;6021;51.182;3.160;2023-04-24T11:51:04;11.70;1.00
11922;DHT22;6021;51.182;3.160;2023-04-24T11:53:33;11.70;1.00
11922;DHT22;6021;51.182;3.160;2023-04-24T11:56:05;11.90;1.00
11922;DHT22;6021;51.182;3.160;2023-04-24T11:58:39;12.30;1.00
11922;DHT22;6021;51.182;3.160;2023-04-24T12:01:08;12.00;1.00
11922;DHT22;6021;51.182;3.160;2023-04-24T12:03:51;11.90;1.00
11922;DHT22;6021;51.182;3.160;2023-04-24T12:06:22;12.00;1.00
11922;DHT22;6021;51.182;3.160;2023-04-24T12:08:58;12.00;1.00
11922;DHT22;6021;51.182;3.160;2023-04-24T12:11:25;12.20;1.00
11922;DHT22;6021;51.182;3.160;2023-04-24T12:13:55;11.90;1.00
11922;DHT22;6021;51.182;3.160;2023-04-24T12:18:59;11.60;1.00
11922;DHT22;6021;51.182;3.160;2023-04-24T12:21:31;11.30;1.00
11922;DHT22;6021;51.182;3.160;2023-04-24T12:24:01;11.30;1.00
11922;DHT22;6021;51.182;3.160;2023-04-24T12:26:31;11.20;1.00
11922;DHT22;6021;51.182;3.160;2023-04-24T12:29:06;11.40;1.00
11922;DHT22;6021;51.182;3.160;2023-04-24T12:32:16;11.30;1.00
11922;DHT22;6021;51.182;3.160;2023-04-24T12:34:55;12.00;1.00
11922;DHT22;6021;51.182;3.160;2023-04-24T12:37:24;12.20;1.00
11922;DHT22;6021;51.182;3.160;2023-04-24T12:42:35;11.70;1.00
11922;DHT22;6021;51.182;3.160;2023-04-24T12:45:07;11.50;1.00
11922;DHT22;6021;51.182;3.160;2023-04-24T12:47:42;11.80;1.00
11922;DHT22;6021;51.182;3.160;2023-04-24T12:50:24;12.20;1.00
11922;DHT22;6021;51.182;3.160;2023-04-24T12:52:54;12.50;1.00
11922;DHT22;6021;51.182;3.160;2023-04-24T12:55:27;12.50;1.00
11922;DHT22;6021;51.182;3.160;2023-04-24T12:58:05;12.30;1.00
11922;DHT22;6021;51.182;3.160;2023-04-24T13:00:33;12.30;1.00
11922;DHT22;6021;51.182;3.160;2023-04-24T13:03:06;11.90;1.00
11922;DHT22;6021;51.182;3.160;2023-04-24T13:05:34;12.20;1.00
11922;DHT22;6021;51.182;3.160;2023-04-24T13:08:04;12.30;1.00
11922;DHT22;6021;51.182;3.160;2023-04-24T13:10:36;12.10;1.00
11922;DHT22;6021;51.182;3.160;2023-04-24T13:13:04;12.10;1.00
11922;DHT22;6021;51.182;3.160;2023-04-24T13:15:40;12.30;1.00
11922;DHT22;6021;51.182;3.160;2023-04-24T13:18:06;12.60;1.00
11922;DHT22;6021;51.182;3.160;2023-04-24T13:20:37;13.00;1.00
11922;DHT22;6021;51.182;3.160;2023-04-24T13:23:11;12.60;1.00
11922;DHT22;6021;51.182;3.160;2023-04-24T13:25:48;12.40;1.00
11922;DHT22;6021;51.182;3.160;2023-04-24T13:28:16;12.20;1.00
11922;DHT22;6021;51.182;3.160;2023-04-24T13:30:52;12.10;1.00
11922;DHT22;6021;51.182;3.160;2023-04-24T13:33:21;12.30;1.00
11922;DHT22;6021;51.182;3.160;2023-04-24T13:35:49;12.40;1.00
11922;DHT22;6021;51.182;3.160;2023-04-24T13:38:18;12.40;1.00
11922;DHT22;6021;51.182;3.160;2023-04-24T13:40:49;12.60;1.00
11922;DHT22;6021;51.182;3.160;2023-04-24T13:43:30;12.40;1.00
11922;DHT22;6021;51.182;3.160;2023-04-24T13:45:52;12.50;1.00
11922;DHT22;6021;51.182;3.160;2023-04-24T13:48:22;12.60;1.00
11922;DHT22;6021;51.182;3.160;2023-04-24T13:50:52;12.70;1.00
11922;DHT22;6021;51.182;3.160;2023-04-24T13:53:30;12.60;1.00
11922;DHT22;6021;51.182;3.160;2023-04-24T13:56:06;12.60;1.00
11922;DHT22;6021;51.182;3.160;2023-04-24T13:58:37;12.60;1.00
11922;DHT22;6021;51.182;3.160;2023-04-24T14:01:16;12.30;1.00
11922;DHT22;6021;51.182;3.160;2023-04-24T14:03:56;12.60;1.00
11922;DHT22;6021;51.182;3.160;2023-04-24T14:06:37;12.60;1.00
11922;DHT22;6021;51.182;3.160;2023-04-24T14:09:11;12.30;1.00
11922;DHT22;6021;51.182;3.160;2023-04-24T14:11:45;12.60;1.00
11922;DHT22;6021;51.182;3.160;2023-04-24T14:14:18;12.40;1.00
11922;DHT22;6021;51.182;3.160;2023-04-24T14:16:55;12.40;1.00
11922;DHT22;6021;51.182;3.160;2023-04-24T14:19:31;12.40;1.00
11922;DHT22;6021;51.182;3.160;2023-04-24T14:25:28;12.20;1.00
11922;DHT22;6021;51.182;3.160;2023-04-24T14:28:09;12.40;1.00
11922;DHT22;6021;51.182;3.160;2023-04-24T14:30:55;12.50;1.00
11922;DHT22;6021;51.182;3.160;2023-04-24T14:34:01;12.60;1.00
11922;DHT22;6021;51.182;3.160;2023-04-24T14:36:21;12.60;1.00
11922;DHT22;6021;51.182;3.160;2023-04-24T14:38:53;12.60;1.00
11922;DHT22;6021;51.182;3.160;2023-04-24T14:41:37;12.90;1.00
11922;DHT22;6021;51.182;3.160;2023-04-24T14:44:39;12.90;1.00
11922;DHT22;6021;51.182;3.160;2023-04-24T14:47:09;12.80;1.00
11922;DHT22;6021;51.182;3.160;2023-04-24T14:49:51;13.00;1.00
11922;DHT22;6021;51.182;3.160;2023-04-24T14:52:31;12.80;1.00
11922;DHT22;6021;51.182;3.160;2023-04-24T14:55:09;12.70;1.00
11922;DHT22;6021;51.182;3.160;2023-04-24T14:57:40;12.30;1.00
11922;DHT22;6021;51.182;3.160;2023-04-24T15:00:11;12.30;1.00
11922;DHT22;6021;51.182;3.160;2023-04-24T15:02:41;12.20;1.00
11922;DHT22;6021;51.182;3.160;2023-04-24T15:05:11;12.30;1.00
11922;DHT22;6021;51.182;3.160;2023-04-24T15:07:43;12.10;1.00
11922;DHT22;6021;51.182;3.160;2023-04-24T15:10:18;12.20;1.00
11922;DHT22;6021;51.182;3.160;2023-04-24T15:12:51;12.00;1.00
11922;DHT22;6021;51.182;3.160;2023-04-24T15:15:19;12.10;1.00
11922;DHT22;6021;51.182;3.160;2023-04-24T15:17:51;12.30;1.00
11922;DHT22;6021;51.182;3.160;2023-04-24T15:20:36;12.10;1.00
11922;DHT22;6021;51.182;3.160;2023-04-24T15:23:46;12.20;1.00
11922;DHT22;6021;51.182;3.160;2023-04-24T15:26:04;11.80;1.00
11922;DHT22;6021;51.182;3.160;2023-04-24T15:28:38;11.90;1.00
11922;DHT22;6021;51.182;3.160;2023-04-24T15:31:28;12.00;1.00
11922;DHT22;6021;51.182;3.160;2023-04-24T15:34:03;11.80;1.00
11922;DHT22;6021;51.182;3.160;2023-04-24T15:36:33;11.90;1.00
11922;DHT22;6021;51.182;3.160;2023-04-24T15:39:03;12.00;1.00
11922;DHT22;6021;51.182;3.160;2023-04-24T15:41:37;12.10;1.00
11922;DHT22;6021;51.182;3.160;2023-04-24T15:49:54;12.00;1.00
11922;DHT22;6021;51.182;3.160;2023-04-24T16:02:52;11.80;1.00
11922;DHT22;6021;51.182;3.160;2023-04-24T16:05:27;11.70;1.00
11922;DHT22;6021;51.182;3.160;2023-04-24T16:07:59;11.60;1.00
11922;DHT22;6021;51.182;3.160;2023-04-24T16:10:29;11.50;1.00
11922;DHT22;6021;51.182;3.160;2023-04-24T16:12:58;11.80;1.00
11922;DHT22;6021;51.182;3.160;2023-04-24T16:15:37;11.80;1.00
11922;DHT22;6021;51.182;3.160;2023-04-24T16:26:06;12.00;1.00
11922;DHT22;6021;51.182;3.160;2023-04-24T16:28:39;11.90;1.00
11922;DHT22;6021;51.182;3.160;2023-04-24T16:31:17;12.00;1.00
11922;DHT22;6021;51.182;3.160;2023-04-24T16:33:50;11.60;1.00
11922;DHT22;6021;51.182;3.160;2023-04-24T16:39:09;11.60;1.00
11922;DHT22;6021;51.182;3.160;2023-04-24T16:41:39;11.60;1.00
11922;DHT22;6021;51.182;3.160;2023-04-24T16:44:08;11.00;1.00
11922;DHT22;6021;51.182;3.160;2023-04-24T16:46:39;11.20;1.00
11922;DHT22;6021;51.182;3.160;2023-04-24T16:49:10;11.10;1.00
11922;DHT22;6021;51.182;3.160;2023-04-24T17:09:51;11.00;1.00
11922;DHT22;6021;51.182;3.160;2023-04-24T17:12:44;10.90;1.00
11922;DHT22;6021;51.182;3.160;2023-04-24T17:15:20;11.10;1.00
11922;DHT22;6021;51.182;3.160;2023-04-24T17:17:49;10.80;1.00
11922;DHT22;6021;51.182;3.160;2023-04-24T17:20:19;10.80;1.00
11922;DHT22;6021;51.182;3.160;2023-04-24T17:23:02;10.70;1.00
11922;DHT22;6021;51.182;3.160;2023-04-24T17:25:28;10.80;1.00
11922;DHT22;6021;51.182;3.160;2023-04-24T17:27:58;10.60;1.00
11922;DHT22;6021;51.182;3.160;2023-04-24T17:30:28;10.80;1.00
11922;DHT22;6021;51.182;3.160;2023-04-24T17:32:58;10.70;1.00
11922;DHT22;6021;51.182;3.160;2023-04-24T17:35:27;10.60;1.00
11922;DHT22;6021;51.182;3.160;2023-04-24T17:57:44;10.40;1.00
11922;DHT22;6021;51.182;3.160;2023-04-24T18:00:18;10.50;1.00
11922;DHT22;6021;51.182;3.160;2023-04-24T18:02:46;10.30;1.00
11922;DHT22;6021;51.182;3.160;2023-04-24T18:05:16;10.10;1.00
11922;DHT22;6021;51.182;3.160;2023-04-24T18:07:44;10.10;1.00
11922;DHT22;6021;51.182;3.160;2023-04-24T18:10:13;9.90;1.00
11922;DHT22;6021;51.182;3.160;2023-04-24T18:12:41;9.90;1.00
11922;DHT22;6021;51.182;3.160;2023-04-24T18:15:10;9.70;1.00
11922;DHT22;6021;51.182;3.160;2023-04-24T18:20:18;9.90;1.00